createdAt,value
2019-01-30T00:01:32.142Z,21.75
2019-01-30T00:04:22.114Z,19.77
2019-01-30T00:07:11.958Z,20.43
2019-01-30T00:10:01.463Z,19.87
2019-01-30T00:12:51.399Z,19.75
2019-01-30T00:15:41.442Z,18.23
2019-01-30T00:18:31.178Z,20.20
2019-01-30T00:21:21.378Z,20.40
2019-01-30T00:24:11.197Z,17.82
2019-01-30T00:27:01.239Z,19.65
2019-01-30T00:29:51.151Z,19.23
2019-01-30T00:32:44.003Z,18.48
2019-01-30T00:35:33.871Z,19.60
2019-01-30T00:38:23.659Z,20.70
2019-01-30T00:41:13.710Z,19.12
2019-01-30T00:44:03.723Z,19.15
2019-01-30T00:46:53.769Z,18.25
2019-01-30T00:49:43.812Z,17.62
2019-01-30T00:52:33.731Z,20.32
2019-01-30T00:55:23.883Z,17.75
2019-01-30T00:58:13.752Z,17.62
2019-01-30T01:01:03.852Z,18.37
2019-01-30T01:03:53.701Z,17.87
2019-01-30T01:06:43.979Z,17.48
2019-01-30T01:09:34.181Z,17.85
2019-01-30T01:12:24.180Z,17.37
2019-01-30T01:15:14.603Z,19.67
2019-01-30T01:18:04.974Z,17.85
2019-01-30T01:20:54.740Z,16.60
2019-01-30T01:23:44.598Z,17.05
2019-01-30T01:26:34.285Z,18.57
2019-01-30T01:29:24.313Z,17.62
2019-01-30T01:32:14.199Z,18.90
2019-01-30T01:35:04.023Z,17.32
2019-01-30T01:37:53.812Z,16.27
2019-01-30T01:40:44.097Z,16.40
2019-01-30T01:43:34.453Z,17.05
2019-01-30T01:46:24.288Z,17.15
2019-01-30T01:49:17.382Z,16.12
2019-01-30T01:52:07.552Z,16.32
2019-01-30T01:54:57.400Z,16.73
2019-01-30T01:57:47.411Z,16.25
2019-01-30T02:00:37.324Z,17.85
2019-01-30T02:03:27.281Z,16.40
2019-01-30T02:06:16.930Z,15.13
2019-01-30T02:09:09.045Z,15.63
2019-01-30T02:11:59.323Z,15.70
2019-01-30T02:14:49.559Z,16.40
2019-01-30T02:17:39.442Z,16.00
2019-01-30T02:20:32.134Z,16.17
2019-01-30T02:23:22.152Z,14.83
2019-01-30T02:26:12.050Z,17.20
2019-01-30T02:29:01.679Z,16.10
2019-01-30T02:31:51.369Z,15.88
2019-01-30T02:34:41.373Z,15.53
2019-01-30T02:37:31.484Z,18.32
2019-01-30T02:40:21.902Z,15.18
2019-01-30T02:43:12.320Z,15.93
2019-01-30T02:46:02.040Z,17.42
2019-01-30T02:48:51.922Z,17.75
2019-01-30T02:51:41.799Z,16.20
2019-01-30T02:54:31.665Z,14.50
2019-01-30T02:57:21.493Z,15.23
2019-01-30T03:00:19.984Z,16.97
2019-01-30T03:03:10.300Z,13.90
2019-01-30T03:06:00.319Z,16.85
2019-01-30T03:08:49.901Z,14.50
2019-01-30T03:11:39.767Z,20.52
2019-01-30T03:14:29.859Z,15.58
2019-01-30T03:17:20.062Z,16.67
2019-01-30T03:20:14.188Z,15.65
2019-01-30T03:23:04.040Z,16.30
2019-01-30T03:25:53.892Z,13.72
2019-01-30T03:28:43.879Z,14.18
2019-01-30T03:31:34.084Z,13.45
2019-01-30T03:34:23.867Z,15.08
2019-01-30T03:37:13.620Z,14.98
2019-01-30T03:40:03.221Z,13.08
2019-01-30T03:42:53.516Z,16.32
2019-01-30T03:45:43.570Z,16.87
2019-01-30T03:48:33.460Z,16.25
2019-01-30T03:51:23.028Z,14.13
2019-01-30T03:54:12.941Z,17.20
2019-01-30T03:57:03.023Z,15.68
2019-01-30T03:59:52.901Z,15.93
2019-01-30T04:02:42.578Z,14.07
2019-01-30T04:05:32.450Z,15.55
2019-01-30T04:08:22.099Z,14.70
2019-01-30T04:11:11.994Z,14.00
2019-01-30T04:14:01.983Z,16.00
2019-01-30T04:16:51.712Z,15.48
2019-01-30T04:19:41.658Z,15.88
2019-01-30T04:22:31.520Z,14.38
2019-01-30T04:25:21.631Z,15.30
2019-01-30T04:28:11.401Z,16.73
2019-01-30T04:31:01.378Z,13.70
2019-01-30T04:33:51.355Z,13.30
2019-01-30T04:36:41.459Z,16.37
2019-01-30T04:39:31.101Z,13.88
2019-01-30T04:42:21.028Z,14.58
2019-01-30T04:45:13.620Z,14.13
2019-01-30T04:48:03.021Z,15.15
2019-01-30T04:50:53.085Z,16.90
2019-01-30T04:53:43.236Z,14.38
2019-01-30T04:56:33.107Z,14.75
2019-01-30T04:59:23.281Z,16.67
2019-01-30T05:02:12.982Z,15.50
2019-01-30T05:05:04.181Z,13.90
2019-01-30T05:07:53.838Z,13.60
2019-01-30T05:10:43.941Z,15.48
2019-01-30T05:13:34.102Z,14.10
2019-01-30T05:16:23.723Z,12.20
2019-01-30T05:19:13.690Z,13.88
2019-01-30T05:22:03.585Z,14.90
2019-01-30T05:24:53.523Z,15.58
2019-01-30T05:27:43.495Z,12.73
2019-01-30T05:30:34.036Z,14.50
2019-01-30T05:33:23.783Z,13.45
2019-01-30T05:36:13.869Z,11.38
2019-01-30T05:39:05.802Z,13.88
2019-01-30T05:41:56.100Z,12.78
2019-01-30T05:44:45.993Z,14.18
2019-01-30T05:47:36.077Z,12.40
2019-01-30T05:50:26.080Z,13.60
2019-01-30T05:53:15.841Z,15.13
2019-01-30T05:56:06.060Z,14.60
2019-01-30T05:58:55.789Z,12.95
2019-01-30T06:01:45.821Z,12.53
2019-01-30T06:04:35.658Z,14.40
2019-01-30T06:07:25.271Z,14.63
2019-01-30T06:10:15.323Z,13.58
2019-01-30T06:13:05.138Z,13.58
2019-01-30T06:15:54.748Z,15.32
2019-01-30T06:18:44.558Z,16.05
2019-01-30T06:21:34.420Z,12.47
2019-01-30T06:24:24.362Z,13.93
2019-01-30T06:27:14.120Z,15.88
2019-01-30T06:30:04.938Z,13.43
2019-01-30T06:32:54.684Z,14.63
2019-01-30T06:35:44.988Z,15.13
2019-01-30T06:38:35.167Z,15.32
2019-01-30T06:41:24.660Z,14.35
2019-01-30T06:44:14.508Z,13.50
2019-01-30T06:47:04.727Z,12.30
2019-01-30T06:49:54.791Z,16.32
2019-01-30T06:52:44.394Z,13.70
2019-01-30T06:55:34.330Z,15.05
2019-01-30T06:58:24.360Z,13.38
2019-01-30T07:01:15.527Z,15.05
2019-01-30T07:04:05.117Z,13.53
2019-01-30T07:06:55.087Z,13.88
2019-01-30T07:09:45.220Z,14.23
2019-01-30T07:12:35.198Z,11.43
2019-01-30T07:15:25.392Z,13.83
2019-01-30T07:18:15.591Z,13.05
2019-01-30T07:21:05.758Z,12.35
2019-01-30T07:23:56.150Z,12.03
2019-01-30T07:26:46.040Z,12.98
2019-01-30T07:29:35.901Z,12.13
2019-01-30T07:32:25.998Z,10.82
2019-01-30T07:35:15.890Z,13.18
2019-01-30T07:38:06.178Z,12.93
2019-01-30T07:40:55.871Z,12.10
2019-01-30T07:43:45.514Z,10.08
2019-01-30T07:46:36.027Z,12.43
2019-01-30T07:49:26.411Z,12.80
2019-01-30T07:52:16.032Z,13.50
2019-01-30T07:55:06.781Z,11.73
2019-01-30T07:57:56.388Z,11.88
2019-01-30T08:00:46.158Z,10.65
2019-01-30T08:03:38.903Z,10.60
2019-01-30T08:06:27.548Z,11.85
2019-01-30T08:09:17.251Z,11.10
2019-01-30T08:12:07.098Z,9.93
2019-01-30T08:14:56.821Z,12.68
2019-01-30T08:17:47.063Z,12.78
2019-01-30T08:20:37.049Z,13.28
2019-01-30T08:23:27.624Z,13.15
2019-01-30T08:26:17.701Z,13.70
2019-01-30T08:29:10.379Z,13.72
2019-01-30T08:32:00.627Z,14.95
2019-01-30T08:34:50.452Z,17.52
2019-01-30T08:37:40.172Z,15.58
2019-01-30T08:40:30.021Z,13.30
2019-01-30T08:43:20.032Z,9.55
2019-01-30T08:46:10.078Z,10.93
2019-01-30T08:49:00.001Z,13.93
2019-01-30T08:51:49.771Z,11.50
2019-01-30T08:54:39.452Z,13.38
2019-01-30T08:57:29.198Z,7.25
2019-01-30T09:00:20.668Z,12.07
2019-01-30T09:03:15.013Z,12.28
2019-01-30T09:06:01.848Z,12.20
2019-01-30T09:08:52.010Z,12.33
2019-01-30T09:11:42.178Z,11.40
2019-01-30T09:14:31.853Z,11.48
2019-01-30T09:17:21.991Z,10.30
2019-01-30T09:20:14.422Z,11.70
2019-01-30T09:23:04.298Z,11.75
2019-01-30T09:25:53.949Z,12.03
2019-01-30T09:28:43.562Z,10.55
2019-01-30T09:31:33.489Z,11.40
2019-01-30T09:34:23.731Z,10.05
2019-01-30T09:37:13.737Z,12.75
2019-01-30T09:40:03.379Z,10.55
2019-01-30T09:42:53.478Z,10.70
2019-01-30T09:45:43.058Z,11.15
2019-01-30T09:48:33.331Z,10.03
2019-01-30T09:51:23.198Z,10.15
2019-01-30T09:54:13.002Z,9.98
2019-01-30T09:57:03.005Z,10.63
2019-01-30T09:59:53.138Z,11.35
2019-01-30T10:02:42.948Z,10.72
2019-01-30T10:05:33.030Z,11.57
2019-01-30T10:08:22.909Z,10.60
2019-01-30T10:11:12.699Z,11.70
2019-01-30T10:14:02.580Z,11.40
2019-01-30T10:16:53.419Z,11.57
2019-01-30T10:19:43.361Z,9.10
2019-01-30T10:22:36.199Z,8.60
2019-01-30T10:25:26.158Z,9.20
2019-01-30T10:28:17.193Z,7.70
2019-01-30T10:31:07.283Z,8.73
2019-01-30T10:33:57.195Z,8.98
2019-01-30T10:36:47.050Z,8.30
2019-01-30T10:39:37.129Z,8.33
2019-01-30T10:42:27.246Z,9.13
2019-01-30T10:45:17.602Z,6.22
2019-01-30T10:48:07.901Z,6.72
2019-01-30T10:50:58.058Z,6.80
2019-01-30T10:53:48.206Z,7.37
2019-01-30T10:56:37.979Z,5.65
2019-01-30T10:59:28.153Z,5.87
2019-01-30T11:03:19.974Z,6.80
2019-01-30T11:06:11.555Z,5.47
2019-01-30T11:09:01.271Z,7.42
2019-01-30T11:11:52.688Z,8.15
2019-01-30T11:14:42.370Z,6.75
2019-01-30T11:17:32.449Z,8.33
2019-01-30T11:20:22.771Z,7.70
2019-01-30T11:23:12.608Z,8.35
2019-01-30T11:26:02.324Z,7.12
2019-01-30T11:28:52.334Z,6.80
2019-01-30T11:31:42.271Z,8.38
2019-01-30T11:34:33.517Z,7.12
2019-01-30T11:37:23.194Z,8.03
2019-01-30T11:40:14.345Z,8.00
2019-01-30T11:43:03.873Z,6.45
2019-01-30T11:45:54.059Z,7.95
2019-01-30T11:48:43.621Z,6.00
2019-01-30T11:51:33.199Z,7.42
2019-01-30T11:54:22.957Z,5.20
2019-01-30T11:57:12.738Z,7.72
2019-01-30T12:00:02.422Z,6.20
2019-01-30T12:02:53.771Z,7.45
2019-01-30T12:05:45.002Z,7.87
2019-01-30T12:08:34.728Z,6.65
2019-01-30T12:11:24.949Z,7.67
2019-01-30T12:14:14.931Z,6.25
2019-01-30T12:17:05.089Z,6.95
2019-01-30T12:19:55.031Z,6.40
2019-01-30T12:22:45.498Z,6.17
2019-01-30T12:25:36.220Z,5.80
2019-01-30T12:28:26.161Z,6.50
2019-01-30T12:31:16.390Z,6.60
2019-01-30T12:34:06.560Z,7.90
2019-01-30T12:36:56.528Z,8.53
2019-01-30T12:39:46.610Z,6.33
2019-01-30T12:42:36.719Z,6.22
2019-01-30T12:45:31.714Z,6.28
2019-01-30T12:48:21.291Z,5.08
2019-01-30T12:51:11.061Z,6.15
2019-01-30T12:54:00.924Z,5.08
2019-01-30T12:56:54.108Z,6.00
2019-01-30T12:59:43.451Z,4.90
2019-01-30T13:02:33.567Z,5.17
2019-01-30T13:05:24.678Z,5.65
2019-01-30T13:08:14.557Z,5.42
2019-01-30T13:11:04.509Z,6.33
2019-01-30T13:13:54.197Z,6.33
2019-01-30T13:16:43.871Z,5.35
2019-01-30T13:19:33.392Z,6.72
2019-01-30T13:22:51.250Z,6.08
2019-01-30T13:25:41.528Z,5.15
2019-01-30T13:28:33.946Z,5.00
2019-01-30T13:31:26.091Z,6.00
2019-01-30T13:34:17.881Z,7.58
2019-01-30T13:37:09.910Z,7.50
2019-01-30T13:40:00.501Z,5.90
2019-01-30T13:42:52.320Z,4.50
2019-01-30T13:45:44.087Z,5.20
2019-01-30T13:48:34.058Z,5.15
2019-01-30T13:51:25.575Z,4.85
2019-01-30T13:54:17.844Z,4.80
2019-01-30T13:57:09.935Z,5.10
2019-01-30T14:00:03.279Z,5.28
2019-01-30T14:02:54.091Z,4.62
2019-01-30T14:05:46.163Z,5.42
2019-01-30T14:08:39.775Z,5.60
2019-01-30T14:11:31.390Z,6.70
2019-01-30T14:14:22.638Z,6.30
2019-01-30T14:17:15.189Z,4.92
2019-01-30T14:20:08.364Z,5.15
2019-01-30T14:23:01.344Z,5.42
2019-01-30T14:25:52.098Z,5.45
2019-01-30T14:28:42.867Z,5.28
2019-01-30T14:31:33.100Z,5.60
2019-01-30T14:34:23.186Z,5.33
2019-01-30T14:37:16.403Z,4.87
2019-01-30T14:40:11.002Z,5.10
2019-01-30T14:43:04.046Z,4.83
2019-01-30T14:45:57.503Z,3.80
2019-01-30T14:48:50.820Z,4.08
2019-01-30T14:51:41.032Z,4.33
2019-01-30T14:54:31.826Z,3.87
2019-01-30T14:57:28.748Z,6.30
2019-01-30T15:00:37.119Z,4.30
2019-01-30T15:03:27.280Z,4.70
2019-01-30T15:06:16.818Z,5.17
2019-01-30T15:09:09.931Z,4.90
2019-01-30T15:11:59.911Z,4.10
2019-01-30T15:14:49.759Z,5.12
2019-01-30T15:17:40.031Z,5.60
2019-01-30T15:20:34.392Z,7.47
2019-01-30T15:23:24.417Z,6.53
2019-01-30T15:26:15.822Z,5.37
2019-01-30T15:29:06.069Z,6.15
2019-01-30T15:31:55.809Z,5.78
2019-01-30T15:34:45.261Z,4.90
2019-01-30T15:37:36.499Z,6.12
2019-01-30T15:40:27.740Z,5.97
2019-01-30T15:43:17.699Z,4.70
2019-01-30T15:46:08.982Z,5.75
2019-01-30T15:48:59.632Z,5.60
2019-01-30T15:51:50.309Z,3.98
2019-01-30T15:55:18.533Z,5.50
2019-01-30T15:58:10.680Z,5.35
2019-01-30T16:01:25.643Z,4.60
2019-01-30T16:04:18.568Z,4.90
2019-01-30T16:07:09.080Z,4.40
2019-01-30T16:10:02.858Z,5.83
2019-01-30T16:12:54.174Z,6.10
2019-01-30T16:15:51.050Z,3.45
2019-01-30T16:18:41.019Z,6.10
2019-01-30T16:21:33.907Z,6.37
2019-01-30T16:24:23.591Z,4.80
2019-01-30T16:27:14.242Z,6.85
2019-01-30T16:30:10.370Z,6.97
2019-01-30T16:33:00.514Z,7.10
2019-01-30T16:35:56.110Z,5.83
2019-01-30T16:38:41.830Z,5.95
2019-01-30T16:41:31.409Z,6.05
2019-01-30T16:44:21.251Z,6.33
2019-01-30T16:47:11.241Z,5.30
2019-01-30T16:50:04.342Z,4.83
2019-01-30T16:52:55.070Z,5.25
2019-01-30T16:55:45.478Z,7.45
2019-01-30T16:58:35.359Z,5.05
2019-01-30T17:01:28.298Z,7.10
2019-01-30T17:04:18.065Z,6.00
2019-01-30T17:07:07.486Z,5.53
2019-01-30T17:09:57.554Z,7.10
2019-01-30T17:12:47.427Z,7.00
2019-01-30T17:15:38.833Z,7.37
2019-01-30T17:18:28.723Z,8.10
2019-01-30T17:21:18.523Z,6.03
2019-01-30T17:24:08.130Z,9.70
2019-01-30T17:26:57.927Z,7.22
2019-01-30T17:29:47.980Z,6.90
2019-01-30T17:32:37.882Z,8.38
2019-01-30T17:35:27.621Z,8.10
2019-01-30T17:38:17.643Z,7.15
2019-01-30T17:41:08.280Z,7.17
2019-01-30T17:43:58.308Z,8.68
2019-01-30T17:46:47.911Z,7.83
2019-01-30T17:49:37.969Z,6.17
2019-01-30T17:52:28.090Z,8.15
2019-01-30T17:55:17.955Z,9.40
2019-01-30T17:58:08.112Z,8.10
2019-01-30T18:01:07.190Z,5.50
2019-01-30T18:03:57.719Z,8.00
2019-01-30T18:06:47.554Z,8.13
2019-01-30T18:09:37.927Z,9.90
2019-01-30T18:12:28.419Z,7.12
2019-01-30T18:15:19.406Z,9.30
2019-01-30T18:18:10.632Z,8.33
2019-01-30T18:21:01.088Z,8.60
2019-01-30T18:23:51.719Z,7.60
2019-01-30T18:26:41.925Z,9.80
2019-01-30T18:29:31.980Z,9.48
2019-01-30T18:32:22.120Z,9.03
2019-01-30T18:35:12.810Z,8.78
2019-01-30T18:38:02.745Z,8.50
2019-01-30T18:40:52.771Z,8.23
2019-01-30T18:43:42.511Z,9.60
2019-01-30T18:46:32.507Z,8.70
2019-01-30T18:49:23.677Z,8.65
2019-01-30T18:52:13.731Z,10.60
2019-01-30T18:55:03.771Z,8.75
2019-01-30T18:57:53.677Z,10.58
2019-01-30T19:00:44.917Z,8.15
2019-01-30T19:03:34.977Z,9.95
2019-01-30T19:06:25.017Z,9.48
2019-01-30T19:09:14.855Z,9.10
2019-01-30T19:12:04.608Z,8.25
2019-01-30T19:14:54.735Z,9.65
2019-01-30T19:17:44.681Z,9.35
2019-01-30T19:20:36.327Z,9.20
2019-01-30T19:23:26.068Z,9.48
2019-01-30T19:26:15.879Z,9.38
2019-01-30T19:29:06.028Z,9.18
2019-01-30T19:31:56.150Z,9.48
2019-01-30T19:34:46.120Z,9.98
2019-01-30T19:37:36.190Z,9.75
2019-01-30T19:40:26.686Z,10.15
2019-01-30T19:43:17.092Z,9.48
2019-01-30T19:46:07.533Z,9.08
2019-01-30T19:48:57.465Z,7.47
2019-01-30T19:51:47.330Z,9.05
2019-01-30T19:54:37.077Z,8.75
2019-01-30T19:57:27.251Z,8.33
2019-01-30T20:00:20.079Z,8.48
2019-01-30T20:03:13.360Z,8.48
2019-01-30T20:06:03.410Z,10.05
2019-01-30T20:08:53.641Z,9.68
2019-01-30T20:11:43.658Z,9.63
2019-01-30T20:14:33.537Z,10.18
2019-01-30T20:17:27.078Z,9.98
2019-01-30T20:20:20.599Z,9.55
2019-01-30T20:23:11.248Z,10.00
2019-01-30T20:26:05.026Z,9.33
2019-01-30T20:28:56.241Z,9.43
2019-01-30T20:31:46.271Z,5.83
2019-01-30T20:34:36.341Z,9.45
2019-01-30T20:37:26.593Z,7.92
2019-01-30T20:40:18.611Z,8.35
2019-01-30T20:43:08.507Z,10.10
2019-01-30T20:45:58.718Z,10.00
2019-01-30T20:48:51.802Z,8.78
2019-01-30T20:51:39.952Z,8.83
2019-01-30T20:54:29.532Z,8.70
2019-01-30T20:57:19.717Z,8.90
2019-01-30T21:00:19.590Z,9.30
2019-01-30T21:03:09.891Z,5.65
2019-01-30T21:06:00.061Z,11.05
2019-01-30T21:08:50.437Z,7.75
2019-01-30T21:11:40.561Z,9.53
2019-01-30T21:14:30.423Z,7.90
2019-01-30T21:17:20.379Z,10.30
2019-01-30T21:20:10.168Z,10.05
2019-01-30T21:23:00.359Z,9.35
2019-01-30T21:25:50.186Z,10.45
2019-01-30T21:28:40.320Z,10.40
2019-01-30T21:31:29.951Z,10.55
2019-01-30T21:34:19.555Z,10.63
2019-01-30T21:37:09.482Z,8.48
2019-01-30T21:39:59.273Z,10.32
2019-01-30T21:42:49.335Z,9.53
2019-01-30T21:45:39.544Z,9.58
2019-01-30T21:48:30.536Z,12.37
2019-01-30T21:51:20.607Z,10.88
2019-01-30T21:54:10.411Z,10.20
2019-01-30T21:57:00.476Z,9.75
2019-01-30T21:59:50.709Z,10.38
2019-01-30T22:02:40.759Z,10.28
2019-01-30T22:05:30.547Z,10.20
2019-01-30T22:08:20.520Z,9.15
2019-01-30T22:11:10.524Z,9.33
2019-01-30T22:14:00.160Z,10.45
2019-01-30T22:16:49.869Z,12.25
2019-01-30T22:19:39.887Z,7.60
2019-01-30T22:22:30.156Z,11.05
2019-01-30T22:25:20.978Z,10.20
2019-01-30T22:28:10.641Z,10.48
2019-01-30T22:31:00.498Z,11.03
2019-01-30T22:33:50.581Z,10.80
2019-01-30T22:36:40.688Z,10.58
2019-01-30T22:39:30.639Z,10.68
2019-01-30T22:42:20.218Z,10.78
2019-01-30T22:45:11.860Z,10.95
2019-01-30T22:48:02.035Z,10.23
2019-01-30T22:50:51.950Z,11.22
2019-01-30T22:53:41.793Z,11.35
2019-01-30T22:56:31.164Z,10.72
2019-01-30T22:59:21.249Z,11.08
2019-01-30T23:02:13.933Z,9.05
2019-01-30T23:05:42.507Z,10.72
2019-01-30T23:08:56.451Z,11.30
2019-01-30T23:12:13.331Z,9.00
2019-01-30T23:15:10.340Z,9.83
2019-01-30T23:18:39.268Z,12.00
2019-01-30T23:21:46.977Z,10.78
2019-01-30T23:25:16.814Z,11.28
2019-01-30T23:28:36.145Z,11.48
2019-01-30T23:31:36.702Z,10.23
2019-01-30T23:34:51.567Z,10.85
2019-01-30T23:38:34.186Z,10.13
2019-01-30T23:41:58.511Z,9.90
2019-01-30T23:45:11.491Z,10.45
2019-01-30T23:48:34.521Z,10.65
2019-01-30T23:51:59.887Z,10.63
2019-01-30T23:55:08.271Z,8.98
2019-01-30T23:58:32.670Z,11.05
